| time (UTC) | temp C | wind direction | speed KPH | gust KPH | rain 1hr cm | rain 24hr cm | rain mn cm | humidity % | barometer mb |
| 20260906052720 | 30 | 0.0 | 0.0 | 0.00 | 0.00 | 0.00 | 603.2 | ||
| 20260906050715 | 28 | 0.0 | 0.0 | 0.00 | 0.00 | 0.00 | 603.2 | ||
| 20260906045811 | 26 | 0.0 | 0.0 | 0.00 | 0.00 | 0.00 | 603.4 | ||
| 20260906043806 | 23 | 0.0 | 0.0 | 0.00 | 0.00 | 0.00 | 603.5 | ||
| 20260906041801 | 23 | 0.0 | 0.0 | 0.00 | 0.00 | 0.00 | 603.5 | ||
| 20260906035756 | 23 | 0.0 | 0.0 | 0.00 | 0.00 | 0.00 | 603.5 | ||
| 20260906035209 | 24 | 0.0 | 0.0 | 0.00 | 0.00 | 0.00 | 603.4 | ||
| 20260906033204 | 23 | 0.0 | 0.0 | 0.00 | 0.00 | 0.00 | 603.4 | ||
| 20260906031412 | 23 | 0.0 | 0.0 | 0.00 | 0.00 | 0.00 | 603.5 | ||
| 20260906025407 | 25 | 0.0 | 0.0 | 0.00 | 0.00 | 0.00 | 603.4 | ||
| 20260906023401 | 25 | 0.0 | 0.0 | 0.00 | 0.00 | 0.00 | 603.4 | ||
| 20260906023303 | 25 | 0.0 | 0.0 | 0.00 | 0.00 | 0.00 | 603.4 | ||
| 20260906021257 | 25 | 0.0 | 0.0 | 0.00 | 0.00 | 0.00 | 603.4 | ||
| 20260906015252 | 25 | 0.0 | 0.0 | 0.00 | 0.00 | 0.00 | 603.4 | ||
| 20260906013247 | 25 | 0.0 | 0.0 | 0.00 | 0.00 | 0.00 | 603.4 | ||
| 20260906011243 | 25 | 0.0 | 0.0 | 0.00 | 0.00 | 0.00 | 603.4 | ||
| 20260906005545 | 24 | 0.0 | 0.0 | 0.00 | 0.00 | 0.00 | 603.5 | ||
| 20260906003540 | 26 | 0.0 | 0.0 | 0.00 | 0.00 | 0.00 | 603.3 | ||
| 20260906001535 | 26 | 0.0 | 0.0 | 0.00 | 0.00 | 0.00 | 603.4 | ||
| 20260905235530 | 26 | 0.0 | 0.0 | 0.00 | 0.00 | 0.00 | 603.3 | ||
| 20260905235410 | 26 | 0.0 | 0.0 | 0.00 | 0.00 | 0.00 | 603.4 | ||
| 20260905233405 | 26 | 0.0 | 0.0 | 0.00 | 0.00 | 0.00 | 603.4 | ||
| 20260905231359 | 26 | 0.0 | 0.0 | 0.00 | 0.00 | 0.00 | 603.4 | ||
| 20260905225354 | 26 | 0.0 | 0.0 | 0.00 | 0.00 | 0.00 | 603.4 | ||
| 20260905223349 | 27 | 0.0 | 0.0 | 0.00 | 0.00 | 0.00 | 603.3 | ||
| 20260905221344 | 27 | 0.0 | 0.0 | 0.00 | 0.00 | 0.00 | 603.3 | ||
| 20260905215339 | 27 | 0.0 | 0.0 | 0.00 | 0.00 | 0.00 | 603.3 | ||
| 20260905213334 | 27 | 0.0 | 0.0 | 0.00 | 0.00 | 0.00 | 603.3 | ||
| 20260905211328 | 27 | 0.0 | 0.0 | 0.00 | 0.00 | 0.00 | 603.3 | ||
| 20260905205323 | 26 | 0.0 | 0.0 | 0.00 | 0.00 | 0.00 | 603.3 | ||
| 20260905205159 | 26 | 0.0 | 0.0 | 0.00 | 0.00 | 0.00 | 603.3 | ||
| 20260905204553 | 26 | 0.0 | 0.0 | 0.00 | 0.00 | 0.00 | 603.3 | ||
| 20260905203300 | 26 | 0.0 | 0.0 | 0.00 | 0.00 | 0.00 | 603.3 | ||
| 20260905203031 | 26 | 0.0 | 0.0 | 0.00 | 0.00 | 0.00 | 603.4 | ||
| 20260905201026 | 26 | 0.0 | 0.0 | 0.00 | 0.00 | 0.00 | 603.3 | ||
| 20260905193015 | 28 | 0.0 | 0.0 | 0.00 | 0.00 | 0.00 | 603.2 | ||
| 20260905191010 | 28 | 0.0 | 0.0 | 0.00 | 0.00 | 0.00 | 603.2 | ||
| 20260905185004 | 28 | 0.0 | 0.0 | 0.00 | 0.00 | 0.00 | 603.2 | ||
| 20260905182959 | 28 | 0.0 | 0.0 | 0.00 | 0.00 | 0.00 | 603.2 | ||
| 20260905180954 | 29 | 0.0 | 0.0 | 0.00 | 0.00 | 0.00 | 603.2 | ||
| 20260905174948 | 29 | 0.0 | 0.0 | 0.00 | 0.00 | 0.00 | 603.2 | ||
| 20260905174431 | 29 | 0.0 | 0.0 | 0.00 | 0.00 | 0.00 | 603.2 | ||
| 20260905172426 | 29 | 0.0 | 0.0 | 0.00 | 0.00 | 0.00 | 603.2 | ||
| 20260905170419 | 31 | 0.0 | 0.0 | 0.00 | 0.00 | 0.00 | 603.1 | ||
| 20260905164414 | 31 | 0.0 | 0.0 | 0.00 | 0.00 | 0.00 | 603.1 | ||
| 20260905162408 | 32 | 0.0 | 0.0 | 0.00 | 0.00 | 0.00 | 603.0 | ||
| 20260905160503 | 33 | 0.0 | 0.0 | 0.00 | 0.00 | 0.00 | 603.0 | ||
| 20260905154457 | 34 | 0.0 | 0.0 | 0.00 | 0.00 | 0.00 | 602.9 | ||
| 20260905152452 | 34 | 0.0 | 0.0 | 0.00 | 0.00 | 0.00 | 602.9 | ||
| 20260905151841 | 35 | 0.0 | 0.0 | 0.00 | 0.00 | 0.00 | 602.9 | ||
| 20260905151536 | 35 | 0.0 | 0.0 | 0.00 | 0.00 | 0.00 | 602.9 | ||
| 20260905151438 | 35 | 0.0 | 0.0 | 0.00 | 0.00 | 0.00 | 602.9 | ||
| 20260905145433 | 35 | 0.0 | 0.0 | 0.00 | 0.00 | 0.00 | 602.9 | ||
| 20260905143427 | 35 | 0.0 | 0.0 | 0.00 | 0.00 | 0.00 | 602.9 | ||
| 20260905141423 | 35 | 0.0 | 0.0 | 0.00 | 0.00 | 0.00 | 602.9 | ||
| 20260905135417 | 35 | 0.0 | 0.0 | 0.00 | 0.00 | 0.00 | 602.9 | ||
| 20260905133412 | 35 | 0.0 | 0.0 | 0.00 | 0.00 | 0.00 | 602.9 | ||
| 20260905125637 | 35 | 0.0 | 0.0 | 0.00 | 0.00 | 0.00 | 602.9 | ||
| 20260905123632 | 35 | 0.0 | 0.0 | 0.00 | 0.00 | 0.00 | 602.9 | ||
| 20260905121626 | 35 | 0.0 | 0.0 | 0.00 | 0.00 | 0.00 | 602.9 | ||
| 20260905115621 | 35 | 0.0 | 0.0 | 0.00 | 0.00 | 0.00 | 602.9 | ||
| 20260905111611 | 35 | 0.0 | 0.0 | 0.00 | 0.00 | 0.00 | 602.9 | ||
| 20260905105507 | 34 | 0.0 | 0.0 | 0.00 | 0.00 | 0.00 | 602.9 | ||
| 20260905103503 | 34 | 0.0 | 0.0 | 0.00 | 0.00 | 0.00 | 602.9 | ||
| 20260905101457 | 34 | 0.0 | 0.0 | 0.00 | 0.00 | 0.00 | 602.9 | ||
| 20260905095452 | 34 | 0.0 | 0.0 | 0.00 | 0.00 | 0.00 | 603.0 | ||
| 20260905093447 | 33 | 0.0 | 0.0 | 0.00 | 0.00 | 0.00 | 603.0 | ||
| 20260905091443 | 32 | 0.0 | 0.0 | 0.00 | 0.00 | 0.00 | 603.0 | ||
| 20260905085643 | 32 | 0.0 | 0.0 | 0.00 | 0.00 | 0.00 | 603.0 | ||
| 20260905083638 | 32 | 0.0 | 0.0 | 0.00 | 0.00 | 0.00 | 603.0 | ||
| 20260905081633 | 32 | 0.0 | 0.0 | 0.00 | 0.00 | 0.00 | 603.0 | ||
| 20260905080819 | 31 | 0.0 | 0.0 | 0.00 | 0.00 | 0.00 | 603.1 | ||
| 20260905074814 | 31 | 0.0 | 0.0 | 0.00 | 0.00 | 0.00 | 603.1 | ||
| 20260905072809 | 31 | 0.0 | 0.0 | 0.00 | 0.00 | 0.00 | 603.1 | ||
| 20260905070803 | 30 | 0.0 | 0.0 | 0.00 | 0.00 | 0.00 | 603.2 | ||
| 20260905064758 | 29 | 0.0 | 0.0 | 0.00 | 0.00 | 0.00 | 603.2 | ||
| 20260905062753 | 30 | 0.0 | 0.0 | 0.00 | 0.00 | 0.00 | 603.2 | ||
| 20260905060925 | 27 | 0.0 | 0.0 | 0.00 | 0.00 | 0.00 | 603.2 |